Decoded Metar for LFCR (RODEZ in FRANCE) (IATA:RDZ) | Meteo·Mobile Aviation Weather
aviador You're here:

LFCR Decoded Metar

RODEZ in FRANCE
Report Time2018-11-12 22:30:00
UTC Time2018-11-12 22:50:30
Flight Rules vfr VFR
Wind160° at 15 kt
W.Decomp.*RWY 13: 13.0 kt HW 7.5 kt RCW
W.Rank160° ranks 14
Current wind is above 160° avg. (5.5)
Visibility9999 m
Phenomena:N/A
Clouds:Few 024 Hf
Overcast 230 Hf
Expected CloudBase > 1,200 ft AGL from Temp-Dew spread
Ceiling23,000 ft
Temp14°C (ISA +3)
Dew Point11°C (82% RH)
AAT8.9°C
QNH1021 hPa
Density Alt2,146 ft
Elevation1,903 ft
Report Wrong Elevation
Raw Report
LFCR 122230Z AUTO 16015KT 9999 FEW024 OVC230 14/11 Q1021 BECMG
30006KT BKN009=

Extra information for LFCR:More info

Metar Taf Metar & Taf Last 4 Metars F.Rules Stats Wind Profile Meteogram Temp Stats Airport Information Weather charts Add Link Nearby VenuesMetar ALERT Operation Metar Decoded Social comments